sensor_id;sensor_type;location;lat;lon;timestamp;pressure;altitude;pressure_sealevel;temperature;humidity
66668;BME280;57205;51.438;-2.006;2024-01-27T00:01:34;102780.63;;;2.66;100.00
66668;BME280;57205;51.438;-2.006;2024-01-27T00:04:00;102789.41;;;2.67;100.00
66668;BME280;57205;51.438;-2.006;2024-01-27T00:06:25;102787.38;;;2.61;100.00
66668;BME280;57205;51.438;-2.006;2024-01-27T00:08:51;102789.34;;;2.59;100.00
66668;BME280;57205;51.438;-2.006;2024-01-27T00:11:16;102796.31;;;2.60;100.00
66668;BME280;57205;51.438;-2.006;2024-01-27T00:13:42;102795.47;;;2.59;100.00
66668;BME280;57205;51.438;-2.006;2024-01-27T00:16:08;102795.47;;;2.59;100.00
66668;BME280;57205;51.438;-2.006;2024-01-27T00:18:36;102798.13;;;2.59;100.00
66668;BME280;57205;51.438;-2.006;2024-01-27T00:21:01;102791.38;;;2.65;100.00
66668;BME280;57205;51.438;-2.006;2024-01-27T00:23:27;102780.34;;;2.69;100.00
66668;BME280;57205;51.438;-2.006;2024-01-27T00:25:52;102780.00;;;2.72;100.00
66668;BME280;57205;51.438;-2.006;2024-01-27T00:28:18;102777.03;;;2.75;100.00
66668;BME280;57205;51.438;-2.006;2024-01-27T00:30:43;102772.09;;;2.72;100.00
66668;BME280;57205;51.438;-2.006;2024-01-27T00:33:09;102769.28;;;2.74;100.00
66668;BME280;57205;51.438;-2.006;2024-01-27T00:35:34;102758.19;;;2.70;100.00
66668;BME280;57205;51.438;-2.006;2024-01-27T00:38:00;102756.38;;;2.71;100.00
66668;BME280;57205;51.438;-2.006;2024-01-27T00:40:25;102751.09;;;2.71;100.00
66668;BME280;57205;51.438;-2.006;2024-01-27T00:42:51;102760.00;;;2.70;100.00
66668;BME280;57205;51.438;-2.006;2024-01-27T00:45:16;102752.91;;;2.70;100.00
66668;BME280;57205;51.438;-2.006;2024-01-27T00:47:41;102754.72;;;2.70;100.00
66668;BME280;57205;51.438;-2.006;2024-01-27T00:50:07;102752.91;;;2.70;100.00
66668;BME280;57205;51.438;-2.006;2024-01-27T00:52:37;102745.31;;;2.67;100.00
66668;BME280;57205;51.438;-2.006;2024-01-27T00:55:02;102754.88;;;2.68;100.00
66668;BME280;57205;51.438;-2.006;2024-01-27T00:57:28;102741.00;;;2.66;100.00
66668;BME280;57205;51.438;-2.006;2024-01-27T00:59:54;102753.38;;;2.66;100.00
66668;BME280;57205;51.438;-2.006;2024-01-27T01:02:20;102749.25;;;2.63;100.00
66668;BME280;57205;51.438;-2.006;2024-01-27T01:04:46;102749.25;;;2.63;100.00
66668;BME280;57205;51.438;-2.006;2024-01-27T01:07:11;102746.78;;;2.62;100.00
66668;BME280;57205;51.438;-2.006;2024-01-27T01:09:37;102745.28;;;2.59;100.00
66668;BME280;57205;51.438;-2.006;2024-01-27T01:12:02;102740.63;;;2.53;100.00
66668;BME280;57205;51.438;-2.006;2024-01-27T01:14:28;102741.91;;;2.49;100.00
66668;BME280;57205;51.438;-2.006;2024-01-27T01:16:53;102735.97;;;2.47;100.00
66668;BME280;57205;51.438;-2.006;2024-01-27T01:19:19;102743.75;;;2.49;100.00
66668;BME280;57205;51.438;-2.006;2024-01-27T01:21:44;102745.41;;;2.50;100.00
66668;BME280;57205;51.438;-2.006;2024-01-27T01:24:10;102737.47;;;2.50;100.00
66668;BME280;57205;51.438;-2.006;2024-01-27T01:26:36;102738.16;;;2.52;100.00
66668;BME280;57205;51.438;-2.006;2024-01-27T01:29:01;102731.06;;;2.52;100.00
66668;BME280;57205;51.438;-2.006;2024-01-27T01:31:27;102723.28;;;2.51;100.00
66668;BME280;57205;51.438;-2.006;2024-01-27T01:33:52;102731.34;;;2.49;100.00
66668;BME280;57205;51.438;-2.006;2024-01-27T01:36:18;102731.50;;;2.48;100.00
66668;BME280;57205;51.438;-2.006;2024-01-27T01:38:43;102736.28;;;2.44;100.00
66668;BME280;57205;51.438;-2.006;2024-01-27T01:41:09;102728.69;;;2.41;100.00
66668;BME280;57205;51.438;-2.006;2024-01-27T01:43:34;102726.53;;;2.37;100.00
66668;BME280;57205;51.438;-2.006;2024-01-27T01:46:00;102719.09;;;2.32;100.00
66668;BME280;57205;51.438;-2.006;2024-01-27T01:48:26;102714.44;;;2.34;100.00
66668;BME280;57205;51.438;-2.006;2024-01-27T01:50:51;102707.03;;;2.30;100.00
66668;BME280;57205;51.438;-2.006;2024-01-27T01:53:18;102717.91;;;2.27;100.00
66668;BME280;57205;51.438;-2.006;2024-01-27T01:55:43;102721.69;;;2.24;100.00
66668;BME280;57205;51.438;-2.006;2024-01-27T01:58:09;102706.97;;;2.22;100.00
66668;BME280;57205;51.438;-2.006;2024-01-27T02:00:34;102706.47;;;2.18;100.00
66668;BME280;57205;51.438;-2.006;2024-01-27T02:03:00;102724.13;;;2.18;100.00
66668;BME280;57205;51.438;-2.006;2024-01-27T02:05:25;102739.28;;;2.16;100.00
66668;BME280;57205;51.438;-2.006;2024-01-27T02:07:51;102742.09;;;2.14;100.00
66668;BME280;57205;51.438;-2.006;2024-01-27T02:10:17;102744.06;;;2.12;100.00
66668;BME280;57205;51.438;-2.006;2024-01-27T02:12:44;102742.59;;;2.18;100.00
66668;BME280;57205;51.438;-2.006;2024-01-27T02:15:11;102734.84;;;2.16;100.00
66668;BME280;57205;51.438;-2.006;2024-01-27T02:17:40;102734.16;;;2.14;100.00
66668;BME280;57205;51.438;-2.006;2024-01-27T02:20:08;102732.38;;;2.15;100.00
66668;BME280;57205;51.438;-2.006;2024-01-27T02:22:34;102733.19;;;2.15;100.00
66668;BME280;57205;51.438;-2.006;2024-01-27T02:25:00;102725.13;;;2.17;100.00
66668;BME280;57205;51.438;-2.006;2024-01-27T02:27:27;102721.47;;;2.18;100.00
66668;BME280;57205;51.438;-2.006;2024-01-27T02:29:52;102723.81;;;2.21;100.00
66668;BME280;57205;51.438;-2.006;2024-01-27T02:32:18;102721.00;;;2.22;100.00
66668;BME280;57205;51.438;-2.006;2024-01-27T02:34:43;102723.50;;;2.24;100.00
66668;BME280;57205;51.438;-2.006;2024-01-27T02:37:09;102724.66;;;2.29;100.00
66668;BME280;57205;51.438;-2.006;2024-01-27T02:39:35;102730.94;;;2.28;100.00
66668;BME280;57205;51.438;-2.006;2024-01-27T02:42:01;102737.88;;;2.29;100.00
66668;BME280;57205;51.438;-2.006;2024-01-27T02:44:26;102730.78;;;2.30;100.00
66668;BME280;57205;51.438;-2.006;2024-01-27T02:46:52;102728.81;;;2.32;100.00
66668;BME280;57205;51.438;-2.006;2024-01-27T02:49:18;102737.56;;;2.32;100.00
66668;BME280;57205;51.438;-2.006;2024-01-27T02:51:43;102741.03;;;2.33;100.00
66668;BME280;57205;51.438;-2.006;2024-01-27T02:54:09;102738.22;;;2.34;100.00
66668;BME280;57205;51.438;-2.006;2024-01-27T02:56:34;102730.97;;;2.36;100.00
66668;BME280;57205;51.438;-2.006;2024-01-27T02:59:00;102726.34;;;2.38;100.00
66668;BME280;57205;51.438;-2.006;2024-01-27T03:01:25;102727.03;;;2.40;100.00
66668;BME280;57205;51.438;-2.006;2024-01-27T03:03:51;102718.44;;;2.38;100.00
66668;BME280;57205;51.438;-2.006;2024-01-27T03:06:16;102709.16;;;2.34;100.00
66668;BME280;57205;51.438;-2.006;2024-01-27T03:08:42;102719.09;;;2.32;100.00
66668;BME280;57205;51.438;-2.006;2024-01-27T03:11:07;102712.47;;;2.28;100.00
66668;BME280;57205;51.438;-2.006;2024-01-27T03:13:33;102715.41;;;2.25;100.00
66668;BME280;57205;51.438;-2.006;2024-01-27T03:15:58;102718.22;;;2.24;100.00
66668;BME280;57205;51.438;-2.006;2024-01-27T03:18:24;102718.69;;;2.19;100.00
66668;BME280;57205;51.438;-2.006;2024-01-27T03:20:50;102721.63;;;2.16;100.00
66668;BME280;57205;51.438;-2.006;2024-01-27T03:23:15;102708.94;;;2.12;100.00
66668;BME280;57205;51.438;-2.006;2024-01-27T03:25:41;102708.94;;;2.12;100.00
66668;BME280;57205;51.438;-2.006;2024-01-27T03:28:06;102711.06;;;2.08;100.00
66668;BME280;57205;51.438;-2.006;2024-01-27T03:30:32;102709.72;;;2.04;100.00
66668;BME280;57205;51.438;-2.006;2024-01-27T03:32:57;102714.31;;;2.02;100.00
66668;BME280;57205;51.438;-2.006;2024-01-27T03:35:23;102706.00;;;1.97;100.00
66668;BME280;57205;51.438;-2.006;2024-01-27T03:37:48;102709.81;;;1.94;100.00
66668;BME280;57205;51.438;-2.006;2024-01-27T03:40:14;102701.38;;;1.91;100.00
66668;BME280;57205;51.438;-2.006;2024-01-27T03:42:39;102705.31;;;1.87;100.00
66668;BME280;57205;51.438;-2.006;2024-01-27T03:45:05;102707.13;;;1.86;100.00
66668;BME280;57205;51.438;-2.006;2024-01-27T03:47:31;102698.69;;;1.83;100.00
66668;BME280;57205;51.438;-2.006;2024-01-27T03:49:57;102698.34;;;1.78;100.00
66668;BME280;57205;51.438;-2.006;2024-01-27T03:52:22;102697.50;;;1.77;100.00
66668;BME280;57205;51.438;-2.006;2024-01-27T03:54:48;102702.94;;;1.76;100.00
66668;BME280;57205;51.438;-2.006;2024-01-27T03:57:13;102699.47;;;1.75;100.00
66668;BME280;57205;51.438;-2.006;2024-01-27T03:59:40;102685.09;;;1.70;100.00
66668;BME280;57205;51.438;-2.006;2024-01-27T04:02:06;102692.94;;;1.62;100.00
66668;BME280;57205;51.438;-2.006;2024-01-27T04:04:32;102690.16;;;1.63;100.00
66668;BME280;57205;51.438;-2.006;2024-01-27T04:06:58;102694.91;;;1.60;100.00
66668;BME280;57205;51.438;-2.006;2024-01-27T04:09:23;102689.09;;;1.56;100.00
66668;BME280;57205;51.438;-2.006;2024-01-27T04:11:49;102688.59;;;1.53;100.00
66668;BME280;57205;51.438;-2.006;2024-01-27T04:14:16;102683.31;;;1.53;100.00
66668;BME280;57205;51.438;-2.006;2024-01-27T04:16:41;102679.88;;;1.52;100.00
66668;BME280;57205;51.438;-2.006;2024-01-27T04:19:07;102691.06;;;1.54;100.00
66668;BME280;57205;51.438;-2.006;2024-01-27T04:21:32;102689.28;;;1.55;100.00
66668;BME280;57205;51.438;-2.006;2024-01-27T04:23:58;102690.63;;;1.59;100.00
66668;BME280;57205;51.438;-2.006;2024-01-27T04:26:23;102683.53;;;1.59;100.00
66668;BME280;57205;51.438;-2.006;2024-01-27T04:28:49;102694.63;;;1.63;100.00
66668;BME280;57205;51.438;-2.006;2024-01-27T04:31:14;102684.34;;;1.60;100.00
66668;BME280;57205;51.438;-2.006;2024-01-27T04:33:40;102674.13;;;1.57;100.00
66668;BME280;57205;51.438;-2.006;2024-01-27T04:36:05;102676.91;;;1.55;100.00
66668;BME280;57205;51.438;-2.006;2024-01-27T04:38:32;102674.72;;;1.51;100.00
66668;BME280;57205;51.438;-2.006;2024-01-27T04:40:58;102687.25;;;1.49;100.00
66668;BME280;57205;51.438;-2.006;2024-01-27T04:43:23;102687.56;;;1.46;100.00
66668;BME280;57205;51.438;-2.006;2024-01-27T04:45:49;102686.03;;;1.43;100.00
66668;BME280;57205;51.438;-2.006;2024-01-27T04:48:15;102688.47;;;1.37;100.00
66668;BME280;57205;51.438;-2.006;2024-01-27T04:50:41;102693.09;;;1.35;100.00
66668;BME280;57205;51.438;-2.006;2024-01-27T04:53:06;102683.53;;;1.34;100.00
66668;BME280;57205;51.438;-2.006;2024-01-27T04:55:32;102677.41;;;1.33;100.00
66668;BME280;57205;51.438;-2.006;2024-01-27T04:57:57;102688.66;;;1.35;100.00
66668;BME280;57205;51.438;-2.006;2024-01-27T05:00:26;102680.72;;;1.35;100.00
66668;BME280;57205;51.438;-2.006;2024-01-27T05:02:53;102667.72;;;1.34;100.00
66668;BME280;57205;51.438;-2.006;2024-01-27T05:05:18;102652.00;;;1.32;100.00
66668;BME280;57205;51.438;-2.006;2024-01-27T05:07:44;102649.91;;;1.36;100.00
66668;BME280;57205;51.438;-2.006;2024-01-27T05:10:12;102649.28;;;1.42;100.00
66668;BME280;57205;51.438;-2.006;2024-01-27T05:12:38;102662.19;;;1.45;100.00
66668;BME280;57205;51.438;-2.006;2024-01-27T05:15:04;102668.66;;;1.50;100.00
66668;BME280;57205;51.438;-2.006;2024-01-27T05:17:30;102679.72;;;1.54;100.00
66668;BME280;57205;51.438;-2.006;2024-01-27T05:19:55;102684.50;;;1.58;100.00
66668;BME280;57205;51.438;-2.006;2024-01-27T05:22:21;102692.13;;;1.61;100.00
66668;BME280;57205;51.438;-2.006;2024-01-27T05:24:46;102691.13;;;1.62;100.00
66668;BME280;57205;51.438;-2.006;2024-01-27T05:27:12;102692.66;;;1.65;100.00
66668;BME280;57205;51.438;-2.006;2024-01-27T05:29:37;102691.81;;;1.64;100.00
66668;BME280;57205;51.438;-2.006;2024-01-27T05:32:03;102690.28;;;1.62;100.00
66668;BME280;57205;51.438;-2.006;2024-01-27T05:34:29;102686.34;;;1.58;100.00
66668;BME280;57205;51.438;-2.006;2024-01-27T05:36:54;102694.53;;;1.55;100.00
66668;BME280;57205;51.438;-2.006;2024-01-27T05:39:19;102684.31;;;1.52;100.00
66668;BME280;57205;51.438;-2.006;2024-01-27T05:41:45;102683.13;;;1.46;100.00
66668;BME280;57205;51.438;-2.006;2024-01-27T05:44:10;102668.59;;;1.42;100.00
66668;BME280;57205;51.438;-2.006;2024-01-27T05:46:36;102649.91;;;1.36;100.00
66668;BME280;57205;51.438;-2.006;2024-01-27T05:49:01;102659.25;;;1.30;100.00
66668;BME280;57205;51.438;-2.006;2024-01-27T05:51:30;102652.16;;;1.31;100.00
66668;BME280;57205;51.438;-2.006;2024-01-27T05:53:55;102641.63;;;1.31;100.00
66668;BME280;57205;51.438;-2.006;2024-01-27T05:56:24;102643.97;;;1.34;100.00
66668;BME280;57205;51.438;-2.006;2024-01-27T05:58:49;102653.22;;;1.38;100.00
66668;BME280;57205;51.438;-2.006;2024-01-27T06:01:17;102651.41;;;1.38;100.00
66668;BME280;57205;51.438;-2.006;2024-01-27T06:03:45;102653.88;;;1.40;100.00
66668;BME280;57205;51.438;-2.006;2024-01-27T06:06:10;102658.19;;;1.41;100.00
66668;BME280;57205;51.438;-2.006;2024-01-27T06:08:36;102665.09;;;1.42;100.00
66668;BME280;57205;51.438;-2.006;2024-01-27T06:11:02;102660.66;;;1.42;100.00
66668;BME280;57205;51.438;-2.006;2024-01-27T06:13:29;102644.00;;;1.42;100.00
66668;BME280;57205;51.438;-2.006;2024-01-27T06:15:54;102648.44;;;1.41;100.00
66668;BME280;57205;51.438;-2.006;2024-01-27T06:18:20;102645.97;;;1.40;100.00
66668;BME280;57205;51.438;-2.006;2024-01-27T06:20:46;102645.16;;;1.39;100.00
66668;BME280;57205;51.438;-2.006;2024-01-27T06:23:11;102656.53;;;1.40;100.00
66668;BME280;57205;51.438;-2.006;2024-01-27T06:25:37;102662.63;;;1.40;100.00
66668;BME280;57205;51.438;-2.006;2024-01-27T06:28:03;102659.16;;;1.40;100.00
66668;BME280;57205;51.438;-2.006;2024-01-27T06:30:28;102651.91;;;1.42;100.00
66668;BME280;57205;51.438;-2.006;2024-01-27T06:32:54;102649.13;;;1.43;100.00
66668;BME280;57205;51.438;-2.006;2024-01-27T06:35:19;102664.16;;;1.43;100.00
66668;BME280;57205;51.438;-2.006;2024-01-27T06:37:45;102655.56;;;1.41;100.00
66668;BME280;57205;51.438;-2.006;2024-01-27T06:40:10;102654.56;;;1.42;100.00
66668;BME280;57205;51.438;-2.006;2024-01-27T06:42:37;102661.34;;;1.44;100.00
66668;BME280;57205;51.438;-2.006;2024-01-27T06:45:03;102664.66;;;1.46;100.00
66668;BME280;57205;51.438;-2.006;2024-01-27T06:47:29;102647.84;;;1.47;100.00
66668;BME280;57205;51.438;-2.006;2024-01-27T06:49:54;102644.53;;;1.45;100.00
66668;BME280;57205;51.438;-2.006;2024-01-27T06:52:20;102637.78;;;1.43;100.00
66668;BME280;57205;51.438;-2.006;2024-01-27T06:54:45;102630.97;;;1.40;100.00
66668;BME280;57205;51.438;-2.006;2024-01-27T06:57:20;102646.66;;;1.42;100.00
66668;BME280;57205;51.438;-2.006;2024-01-27T06:59:51;102637.91;;;1.41;100.00
66668;BME280;57205;51.438;-2.006;2024-01-27T07:02:28;102628.41;;;1.48;100.00
66668;BME280;57205;51.438;-2.006;2024-01-27T07:04:56;102641.44;;;1.50;100.00
66668;BME280;57205;51.438;-2.006;2024-01-27T07:07:28;102630.56;;;1.53;100.00
66668;BME280;57205;51.438;-2.006;2024-01-27T07:09:58;102640.50;;;1.59;100.00
66668;BME280;57205;51.438;-2.006;2024-01-27T07:12:24;102641.00;;;1.62;100.00
66668;BME280;57205;51.438;-2.006;2024-01-27T07:14:49;102631.81;;;1.66;100.00
66668;BME280;57205;51.438;-2.006;2024-01-27T07:17:16;102625.06;;;1.72;100.00
66668;BME280;57205;51.438;-2.006;2024-01-27T07:19:42;102628.88;;;1.77;100.00
66668;BME280;57205;51.438;-2.006;2024-01-27T07:22:08;102627.75;;;1.80;100.00
66668;BME280;57205;51.438;-2.006;2024-01-27T07:24:33;102631.88;;;1.82;100.00
66668;BME280;57205;51.438;-2.006;2024-01-27T07:27:02;102634.34;;;1.84;100.00
66668;BME280;57205;51.438;-2.006;2024-01-27T07:29:28;102626.31;;;1.85;100.00
66668;BME280;57205;51.438;-2.006;2024-01-27T07:31:55;102631.09;;;1.90;100.00
66668;BME280;57205;51.438;-2.006;2024-01-27T07:34:21;102635.06;;;1.94;100.00
66668;BME280;57205;51.438;-2.006;2024-01-27T07:36:46;102630.47;;;1.96;100.00
66668;BME280;57205;51.438;-2.006;2024-01-27T07:39:13;102614.81;;;2.03;100.00
66668;BME280;57205;51.438;-2.006;2024-01-27T07:41:39;102616.00;;;2.08;100.00
66668;BME280;57205;51.438;-2.006;2024-01-27T07:44:08;102625.56;;;2.09;100.00
66668;BME280;57205;51.438;-2.006;2024-01-27T07:46:35;102624.44;;;2.12;100.00
66668;BME280;57205;51.438;-2.006;2024-01-27T07:49:01;102647.03;;;2.14;100.00
66668;BME280;57205;51.438;-2.006;2024-01-27T07:51:28;102639.94;;;2.15;100.00
66668;BME280;57205;51.438;-2.006;2024-01-27T07:53:53;102642.41;;;2.16;100.00
66668;BME280;57205;51.438;-2.006;2024-01-27T07:56:19;102641.44;;;2.17;100.00
66668;BME280;57205;51.438;-2.006;2024-01-27T07:58:45;102644.91;;;2.18;100.00
66668;BME280;57205;51.438;-2.006;2024-01-27T08:01:15;102642.94;;;2.20;100.00
66668;BME280;57205;51.438;-2.006;2024-01-27T08:03:41;102645.41;;;2.21;100.00
66668;BME280;57205;51.438;-2.006;2024-01-27T08:06:19;102639.81;;;2.24;100.00
66668;BME280;57205;51.438;-2.006;2024-01-27T08:08:46;102642.13;;;2.27;100.00
66668;BME280;57205;51.438;-2.006;2024-01-27T08:11:17;102642.13;;;2.27;100.00
66668;BME280;57205;51.438;-2.006;2024-01-27T08:13:43;102628.91;;;2.27;100.00
66668;BME280;57205;51.438;-2.006;2024-01-27T08:16:11;102636.03;;;2.27;100.00
66668;BME280;57205;51.438;-2.006;2024-01-27T08:18:41;102636.19;;;2.25;100.00
66668;BME280;57205;51.438;-2.006;2024-01-27T08:21:10;102638.34;;;2.30;100.00
66668;BME280;57205;51.438;-2.006;2024-01-27T08:23:37;102640.81;;;2.31;100.00
66668;BME280;57205;51.438;-2.006;2024-01-27T08:26:03;102636.38;;;2.32;100.00
66668;BME280;57205;51.438;-2.006;2024-01-27T08:28:30;102634.91;;;2.37;100.00
66668;BME280;57205;51.438;-2.006;2024-01-27T08:30:56;102635.06;;;2.44;100.00
66668;BME280;57205;51.438;-2.006;2024-01-27T08:33:21;102636.56;;;2.46;100.00
66668;BME280;57205;51.438;-2.006;2024-01-27T08:35:47;102638.75;;;2.51;100.00
66668;BME280;57205;51.438;-2.006;2024-01-27T08:38:16;102639.25;;;2.54;100.00
66668;BME280;57205;51.438;-2.006;2024-01-27T08:40:41;102634.78;;;2.63;100.00
66668;BME280;57205;51.438;-2.006;2024-01-27T08:43:07;102632.47;;;2.68;100.00
66668;BME280;57205;51.438;-2.006;2024-01-27T08:45:32;102638.25;;;2.71;100.00
66668;BME280;57205;51.438;-2.006;2024-01-27T08:47:58;102639.41;;;2.77;100.00
66668;BME280;57205;51.438;-2.006;2024-01-27T08:50:25;102644.22;;;2.81;100.00
66668;BME280;57205;51.438;-2.006;2024-01-27T08:52:51;102632.19;;;2.87;100.00
66668;BME280;57205;51.438;-2.006;2024-01-27T08:55:17;102633.50;;;2.91;100.00
66668;BME280;57205;51.438;-2.006;2024-01-27T08:57:46;102629.19;;;2.98;100.00
66668;BME280;57205;51.438;-2.006;2024-01-27T09:00:12;102629.88;;;3.08;100.00
66668;BME280;57205;51.438;-2.006;2024-01-27T09:02:38;102624.91;;;3.13;100.00
66668;BME280;57205;51.438;-2.006;2024-01-27T09:05:04;102623.25;;;3.20;100.00
66668;BME280;57205;51.438;-2.006;2024-01-27T09:07:30;102631.84;;;3.30;100.00
66668;BME280;57205;51.438;-2.006;2024-01-27T09:09:56;102628.00;;;3.41;100.00
66668;BME280;57205;51.438;-2.006;2024-01-27T09:12:21;102639.25;;;3.51;100.00
66668;BME280;57205;51.438;-2.006;2024-01-27T09:14:48;102637.06;;;3.62;100.00
66668;BME280;57205;51.438;-2.006;2024-01-27T09:17:13;102645.47;;;3.74;100.00
66668;BME280;57205;51.438;-2.006;2024-01-27T09:19:39;102646.28;;;3.82;100.00
66668;BME280;57205;51.438;-2.006;2024-01-27T09:22:04;102647.91;;;3.91;100.00
66668;BME280;57205;51.438;-2.006;2024-01-27T09:24:30;102648.53;;;4.02;100.00
66668;BME280;57205;51.438;-2.006;2024-01-27T09:26:55;102647.47;;;4.11;100.00
66668;BME280;57205;51.438;-2.006;2024-01-27T09:29:23;102658.72;;;4.21;100.00
66668;BME280;57205;51.438;-2.006;2024-01-27T09:31:49;102663.16;;;4.28;100.00
66668;BME280;57205;51.438;-2.006;2024-01-27T09:34:14;102667.22;;;4.39;100.00
66668;BME280;57205;51.438;-2.006;2024-01-27T09:36:40;102671.84;;;4.45;100.00
66668;BME280;57205;51.438;-2.006;2024-01-27T09:39:05;102668.69;;;4.49;100.00
66668;BME280;57205;51.438;-2.006;2024-01-27T09:41:34;102670.00;;;4.53;100.00
66668;BME280;57205;51.438;-2.006;2024-01-27T09:44:02;102665.81;;;4.59;100.00
66668;BME280;57205;51.438;-2.006;2024-01-27T09:46:29;102651.19;;;4.63;100.00
66668;BME280;57205;51.438;-2.006;2024-01-27T09:48:55;102656.81;;;4.68;100.00
66668;BME280;57205;51.438;-2.006;2024-01-27T09:51:21;102656.28;;;4.72;100.00
66668;BME280;57205;51.438;-2.006;2024-01-27T09:53:47;102660.22;;;4.76;100.00
66668;BME280;57205;51.438;-2.006;2024-01-27T09:56:13;102657.88;;;4.81;100.00
66668;BME280;57205;51.438;-2.006;2024-01-27T09:58:43;102665.13;;;4.87;100.00
66668;BME280;57205;51.438;-2.006;2024-01-27T10:01:10;102671.38;;;4.94;100.00
66668;BME280;57205;51.438;-2.006;2024-01-27T10:03:40;102666.84;;;5.03;100.00
66668;BME280;57205;51.438;-2.006;2024-01-27T10:06:10;102665.78;;;5.12;100.00
66668;BME280;57205;51.438;-2.006;2024-01-27T10:08:36;102666.69;;;5.19;100.00
66668;BME280;57205;51.438;-2.006;2024-01-27T10:11:13;102654.53;;;5.25;100.00
66668;BME280;57205;51.438;-2.006;2024-01-27T10:13:39;102653.66;;;5.32;100.00
66668;BME280;57205;51.438;-2.006;2024-01-27T10:16:07;102660.19;;;5.44;100.00
66668;BME280;57205;51.438;-2.006;2024-01-27T10:18:37;102660.91;;;5.53;100.00
66668;BME280;57205;51.438;-2.006;2024-01-27T10:21:18;102657.38;;;5.60;100.00
66668;BME280;57205;51.438;-2.006;2024-01-27T10:23:45;102665.41;;;5.67;100.00
66668;BME280;57205;51.438;-2.006;2024-01-27T10:26:11;102659.19;;;5.74;100.00
66668;BME280;57205;51.438;-2.006;2024-01-27T10:28:38;102654.47;;;5.84;100.00
66668;BME280;57205;51.438;-2.006;2024-01-27T10:31:11;102655.13;;;6.01;100.00
66668;BME280;57205;51.438;-2.006;2024-01-27T10:33:38;102646.47;;;6.14;100.00
66668;BME280;57205;51.438;-2.006;2024-01-27T10:36:04;102651.50;;;6.23;100.00
66668;BME280;57205;51.438;-2.006;2024-01-27T10:38:37;102650.75;;;6.44;100.00
66668;BME280;57205;51.438;-2.006;2024-01-27T10:41:07;102644.56;;;6.58;100.00
66668;BME280;57205;51.438;-2.006;2024-01-27T10:43:35;102636.06;;;6.69;100.00
66668;BME280;57205;51.438;-2.006;2024-01-27T10:46:05;102632.94;;;6.80;100.00
66668;BME280;57205;51.438;-2.006;2024-01-27T10:48:30;102637.44;;;6.79;100.00
66668;BME280;57205;51.438;-2.006;2024-01-27T10:50:58;102633.75;;;6.80;100.00
66668;BME280;57205;51.438;-2.006;2024-01-27T10:53:26;102633.53;;;6.82;100.00
66668;BME280;57205;51.438;-2.006;2024-01-27T10:55:57;102633.75;;;6.80;100.00
66668;BME280;57205;51.438;-2.006;2024-01-27T10:58:23;102632.75;;;6.81;100.00
66668;BME280;57205;51.438;-2.006;2024-01-27T11:00:52;102624.97;;;6.80;100.00
66668;BME280;57205;51.438;-2.006;2024-01-27T11:03:18;102624.13;;;6.79;100.00
66668;BME280;57205;51.438;-2.006;2024-01-27T11:05:46;102617.34;;;6.77;100.00
66668;BME280;57205;51.438;-2.006;2024-01-27T11:08:12;102618.53;;;6.74;100.00
66668;BME280;57205;51.438;-2.006;2024-01-27T11:10:38;102611.19;;;6.76;100.00
66668;BME280;57205;51.438;-2.006;2024-01-27T11:13:04;102604.22;;;6.75;100.00
66668;BME280;57205;51.438;-2.006;2024-01-27T11:15:30;102608.78;;;6.81;100.00
66668;BME280;57205;51.438;-2.006;2024-01-27T11:18:00;102607.66;;;6.90;100.00
66668;BME280;57205;51.438;-2.006;2024-01-27T11:20:32;102620.44;;;7.02;100.00
66668;BME280;57205;51.438;-2.006;2024-01-27T11:23:08;102615.00;;;7.10;100.00
66668;BME280;57205;51.438;-2.006;2024-01-27T11:25:34;102618.31;;;7.18;100.00
66668;BME280;57205;51.438;-2.006;2024-01-27T11:28:10;102614.25;;;7.22;100.00
66668;BME280;57205;51.438;-2.006;2024-01-27T11:30:38;102604.91;;;7.33;100.00
66668;BME280;57205;51.438;-2.006;2024-01-27T11:33:05;102592.72;;;7.45;100.00
66668;BME280;57205;51.438;-2.006;2024-01-27T11:35:31;102591.53;;;7.54;100.00
66668;BME280;57205;51.438;-2.006;2024-01-27T11:37:57;102586.88;;;7.62;100.00
66668;BME280;57205;51.438;-2.006;2024-01-27T11:40:22;102599.00;;;7.71;100.00
66668;BME280;57205;51.438;-2.006;2024-01-27T11:43:01;102600.31;;;7.82;100.00
66668;BME280;57205;51.438;-2.006;2024-01-27T11:45:27;102597.88;;;7.87;100.00
66668;BME280;57205;51.438;-2.006;2024-01-27T11:47:57;102589.09;;;7.93;100.00
66668;BME280;57205;51.438;-2.006;2024-01-27T11:50:23;102578.44;;;7.93;100.00
66668;BME280;57205;51.438;-2.006;2024-01-27T11:52:49;102579.66;;;7.97;100.00
66668;BME280;57205;51.438;-2.006;2024-01-27T11:55:15;102588.47;;;7.98;100.00
66668;BME280;57205;51.438;-2.006;2024-01-27T11:57:41;102584.59;;;8.00;100.00
66668;BME280;57205;51.438;-2.006;2024-01-27T12:00:08;102591.59;;;8.08;100.00
66668;BME280;57205;51.438;-2.006;2024-01-27T12:02:37;102593.28;;;8.15;100.00
66668;BME280;57205;51.438;-2.006;2024-01-27T12:05:05;102593.50;;;8.20;100.00
66668;BME280;57205;51.438;-2.006;2024-01-27T12:07:31;102595.19;;;8.28;100.00
66668;BME280;57205;51.438;-2.006;2024-01-27T12:09:58;102589.06;;;8.34;100.00
66668;BME280;57205;51.438;-2.006;2024-01-27T12:12:24;102585.34;;;8.35;100.00
66668;BME280;57205;51.438;-2.006;2024-01-27T12:14:51;102580.22;;;8.33;100.00
66668;BME280;57205;51.438;-2.006;2024-01-27T12:17:17;102580.03;;;8.35;100.00
66668;BME280;57205;51.438;-2.006;2024-01-27T12:19:48;102574.91;;;8.33;100.00
66668;BME280;57205;51.438;-2.006;2024-01-27T12:22:29;102567.06;;;8.25;100.00
66668;BME280;57205;51.438;-2.006;2024-01-27T12:24:56;102572.78;;;8.22;100.00
66668;BME280;57205;51.438;-2.006;2024-01-27T12:27:33;102571.75;;;8.23;100.00
66668;BME280;57205;51.438;-2.006;2024-01-27T12:30:00;102558.00;;;8.20;100.00
66668;BME280;57205;51.438;-2.006;2024-01-27T12:32:26;102544.88;;;8.18;100.00
66668;BME280;57205;51.438;-2.006;2024-01-27T12:34:53;102542.41;;;8.17;100.00
66668;BME280;57205;51.438;-2.006;2024-01-27T12:37:21;102537.50;;;8.14;100.00